LETO/TOJ METAR and TAF weather

Enter ICAO airport designator
Station Type Date Time Source
LETO METAR 2019/02/21 15:00 UTC NOAA

LETO 211500Z 24005KT 200V280 CAVOK 18/01 Q1028 NOSIG


Station Type Date Time Source
LETO Decoded METAR 2019/02/21 15:00 UTC NOAA

Madrid / Torrejon, Spain (LETO) 40-29N 003-27W 611M
Feb 21, 2019 - 10:00 AM EST / 2019.02.21 1500 UTC
Wind: from the WSW (240 degrees) at 6 MPH (5 KT) (direction variable):0
Visibility: greater than 7 mile(s):0
Temperature: 64 F (18 C)
Dew Point: 33 F (1 C)
Relative Humidity: 31%
Pressure (altimeter): 30.36 in. Hg (1028 hPa)
ob: LETO 211500Z 24005KT 200V280 CAVOK 18/01 Q1028 NOSIG
cycle: 15

Station Type Date Time Source
LETO TAF 2019/02/21 12:27 UTC NOAA

TAF LETO 211100Z 2112/2212 VRB04KT CAVOK TX16/2115Z TN00/2207Z


Example: see airport list